createdAt,value
2023-03-20T00:01:14.385Z,2.70
2023-03-20T00:03:41.873Z,2.83
2023-03-20T00:06:28.893Z,1.65
2023-03-20T00:08:57.560Z,2.20
2023-03-20T00:11:28.823Z,2.20
2023-03-20T00:13:56.855Z,2.85
2023-03-20T00:16:24.166Z,2.47
2023-03-20T00:18:50.892Z,4.85
2023-03-20T00:21:18.041Z,1.30
2023-03-20T00:23:46.020Z,1.88
2023-03-20T00:26:18.200Z,1.27
2023-03-20T00:28:46.208Z,3.25
2023-03-20T00:31:28.341Z,2.60
2023-03-20T00:33:57.203Z,4.18
2023-03-20T00:36:24.025Z,2.38
2023-03-20T00:38:51.572Z,2.08
2023-03-20T00:41:31.214Z,3.00
2023-03-20T00:44:42.388Z,1.50
2023-03-20T00:47:12.870Z,3.20
2023-03-20T00:49:40.212Z,2.05
2023-03-20T00:52:06.940Z,2.25
2023-03-20T00:54:33.651Z,2.13
2023-03-20T00:57:06.577Z,2.95
2023-03-20T00:59:34.909Z,2.92
2023-03-20T01:02:02.592Z,1.65
2023-03-20T01:04:37.984Z,4.65
2023-03-20T01:07:04.877Z,1.73
2023-03-20T01:09:31.809Z,3.20
2023-03-20T01:12:02.415Z,2.22
2023-03-20T01:14:29.128Z,1.65
2023-03-20T01:16:55.874Z,2.67
2023-03-20T01:19:22.598Z,1.52
2023-03-20T01:21:49.263Z,2.28
2023-03-20T01:24:17.064Z,1.88
2023-03-20T01:26:44.702Z,3.17
2023-03-20T01:29:20.538Z,3.38
2023-03-20T01:31:48.561Z,4.60
2023-03-20T01:34:18.176Z,1.35
2023-03-20T01:36:54.677Z,2.40
2023-03-20T01:39:21.916Z,3.47
2023-03-20T01:41:49.362Z,2.38
2023-03-20T01:44:30.347Z,1.80
2023-03-20T01:46:57.131Z,3.47
2023-03-20T01:49:23.750Z,2.10
2023-03-20T01:51:51.349Z,2.00
2023-03-20T01:54:19.861Z,2.22
2023-03-20T01:56:49.862Z,1.73
2023-03-20T01:59:33.838Z,1.40
2023-03-20T02:02:00.681Z,1.95
2023-03-20T02:04:34.872Z,1.98
2023-03-20T02:07:01.688Z,1.08
2023-03-20T02:09:28.402Z,1.38
2023-03-20T02:11:55.133Z,1.95
2023-03-20T02:14:21.784Z,3.22
2023-03-20T02:16:49.477Z,1.27
2023-03-20T02:19:54.320Z,2.22
2023-03-20T02:22:39.805Z,1.65
2023-03-20T02:25:18.346Z,2.53
2023-03-20T02:28:03.068Z,1.33
2023-03-20T02:30:42.881Z,5.90
2023-03-20T02:33:28.124Z,4.47
2023-03-20T02:36:20.010Z,1.08
2023-03-20T02:39:01.497Z,1.83
2023-03-20T02:41:42.587Z,2.22
2023-03-20T02:44:31.329Z,4.00
2023-03-20T02:47:05.751Z,1.20
2023-03-20T02:50:23.481Z,1.08
2023-03-20T02:53:17.157Z,3.50
2023-03-20T02:55:53.345Z,1.20
2023-03-20T02:58:28.422Z,1.73
2023-03-20T03:01:01.552Z,1.25
2023-03-20T03:03:29.604Z,1.88
2023-03-20T03:05:57.924Z,1.92
2023-03-20T03:08:27.009Z,2.72
2023-03-20T03:11:02.612Z,4.38
2023-03-20T03:13:30.096Z,2.20
2023-03-20T03:16:03.059Z,1.55
2023-03-20T03:18:29.997Z,2.55
2023-03-20T03:20:58.314Z,1.35
2023-03-20T03:23:35.407Z,1.00
2023-03-20T03:26:03.591Z,0.88
2023-03-20T03:28:37.304Z,3.67
2023-03-20T03:31:05.746Z,2.72
2023-03-20T03:33:32.677Z,2.92
2023-03-20T03:36:34.395Z,3.47
2023-03-20T03:39:14.018Z,0.88
2023-03-20T03:41:59.650Z,2.67
2023-03-20T03:44:29.004Z,3.33
2023-03-20T03:47:20.224Z,2.45
2023-03-20T03:49:50.025Z,0.75
2023-03-20T03:52:19.879Z,1.52
2023-03-20T03:54:55.740Z,1.95
2023-03-20T03:57:29.587Z,0.68
2023-03-20T03:59:56.900Z,3.00
2023-03-20T04:02:23.603Z,1.40
2023-03-20T04:04:51.994Z,1.67
2023-03-20T04:07:18.775Z,1.10
2023-03-20T04:09:45.560Z,3.20
2023-03-20T04:12:38.632Z,2.03
2023-03-20T04:15:06.119Z,2.45
2023-03-20T04:17:33.116Z,2.28
2023-03-20T04:19:59.781Z,0.40
2023-03-20T04:22:28.161Z,1.92
2023-03-20T04:24:54.916Z,1.92
2023-03-20T04:27:21.586Z,3.83
2023-03-20T04:29:48.598Z,1.20
2023-03-20T04:32:15.364Z,2.92
2023-03-20T04:34:42.239Z,1.10
2023-03-20T04:37:09.322Z,2.35
2023-03-20T04:39:37.434Z,4.15
2023-03-20T04:42:04.632Z,6.70
2023-03-20T04:44:31.487Z,2.10
2023-03-20T04:46:59.139Z,1.63
2023-03-20T04:49:25.891Z,2.67
2023-03-20T04:51:52.916Z,1.83
2023-03-20T04:54:19.666Z,1.88
2023-03-20T04:56:46.346Z,1.77
2023-03-20T04:59:13.110Z,2.95
2023-03-20T05:01:39.899Z,1.30
2023-03-20T05:04:06.792Z,1.85
2023-03-20T05:06:33.546Z,1.98
2023-03-20T05:09:00.974Z,2.40
2023-03-20T05:11:28.427Z,1.63
2023-03-20T05:13:55.253Z,4.32
2023-03-20T05:16:21.937Z,1.20
2023-03-20T05:18:48.664Z,1.83
2023-03-20T05:21:15.631Z,3.03
2023-03-20T05:23:42.335Z,1.90
2023-03-20T05:26:09.189Z,3.05
2023-03-20T05:28:35.890Z,3.75
2023-03-20T05:31:02.644Z,1.73
2023-03-20T05:33:30.434Z,1.10
2023-03-20T05:35:57.161Z,1.95
2023-03-20T05:38:23.947Z,3.90
2023-03-20T05:40:50.655Z,1.20
2023-03-20T05:43:17.342Z,2.97
2023-03-20T05:45:44.034Z,1.48
2023-03-20T05:48:10.847Z,2.42
2023-03-20T05:50:37.617Z,1.15
2023-03-20T05:53:04.453Z,2.70
2023-03-20T05:55:31.682Z,9.60
2023-03-20T05:57:58.349Z,3.10
2023-03-20T06:00:25.173Z,3.67
2023-03-20T06:02:52.037Z,2.38
2023-03-20T06:05:18.790Z,3.90
2023-03-20T06:07:45.973Z,4.97
2023-03-20T06:10:12.681Z,1.42
2023-03-20T06:12:39.391Z,1.38
2023-03-20T06:15:06.571Z,5.68
2023-03-20T06:17:33.289Z,3.20
2023-03-20T06:20:00.318Z,3.30
2023-03-20T06:22:26.977Z,2.40
2023-03-20T06:24:56.570Z,6.63
2023-03-20T06:27:23.675Z,3.15
2023-03-20T06:29:50.556Z,2.60
2023-03-20T06:32:17.819Z,2.13
2023-03-20T06:34:44.584Z,4.78
2023-03-20T06:37:11.541Z,2.90
2023-03-20T06:39:38.251Z,4.13
2023-03-20T06:42:05.041Z,4.03
2023-03-20T06:44:31.822Z,4.07
2023-03-20T06:46:58.604Z,3.97
2023-03-20T06:49:25.547Z,4.93
2023-03-20T06:51:52.738Z,3.95
2023-03-20T06:54:19.450Z,6.82
2023-03-20T06:56:46.741Z,3.03
2023-03-20T06:59:13.974Z,3.05
2023-03-20T07:01:40.727Z,2.30
2023-03-20T07:04:07.607Z,3.80
2023-03-20T07:06:34.885Z,2.33
2023-03-20T07:09:01.847Z,1.85
2023-03-20T07:11:28.846Z,1.50
2023-03-20T07:13:55.921Z,4.55
2023-03-20T07:16:22.976Z,3.22
2023-03-20T07:18:49.909Z,2.58
2023-03-20T07:21:21.357Z,3.65
2023-03-20T07:23:48.408Z,1.45
2023-03-20T07:26:15.828Z,3.60
2023-03-20T07:28:42.965Z,2.25
2023-03-20T07:31:18.716Z,2.88
2023-03-20T07:33:45.670Z,4.22
2023-03-20T07:36:12.324Z,4.32
2023-03-20T07:38:39.029Z,4.78
2023-03-20T07:41:05.990Z,4.85
2023-03-20T07:43:33.290Z,3.15
2023-03-20T07:46:04.291Z,4.13
2023-03-20T07:48:32.651Z,4.97
2023-03-20T07:50:59.482Z,4.80
2023-03-20T07:53:27.056Z,3.22
2023-03-20T07:55:54.028Z,6.65
2023-03-20T07:58:20.886Z,8.52
2023-03-20T08:00:47.594Z,4.47
2023-03-20T08:03:14.450Z,9.55
2023-03-20T08:05:41.460Z,6.80
2023-03-20T08:08:08.323Z,9.15
2023-03-20T08:10:35.206Z,6.20
2023-03-20T08:13:02.477Z,9.68
2023-03-20T08:15:29.141Z,9.48
2023-03-20T08:17:58.156Z,7.15
2023-03-20T08:20:24.868Z,6.40
2023-03-20T08:22:51.511Z,3.90
2023-03-20T08:25:18.340Z,2.70
2023-03-20T08:27:45.353Z,3.78
2023-03-20T08:30:13.903Z,7.88
2023-03-20T08:32:41.092Z,6.78
2023-03-20T08:35:16.343Z,9.75
2023-03-20T08:37:48.959Z,7.60
2023-03-20T08:40:16.860Z,7.55
2023-03-20T08:42:43.576Z,4.90
2023-03-20T08:45:11.253Z,10.85
2023-03-20T08:47:40.212Z,1.98
2023-03-20T08:50:07.782Z,5.53
2023-03-20T08:52:34.506Z,8.82
2023-03-20T08:55:02.821Z,4.43
2023-03-20T08:57:30.215Z,9.95
2023-03-20T08:59:58.277Z,3.55
2023-03-20T09:02:25.041Z,2.85
2023-03-20T09:04:51.781Z,9.63
2023-03-20T09:07:18.638Z,3.08
2023-03-20T09:09:45.634Z,6.63
2023-03-20T09:12:12.402Z,4.90
2023-03-20T09:14:39.237Z,6.30
2023-03-20T09:17:06.036Z,8.13
2023-03-20T09:19:32.869Z,7.95
2023-03-20T09:22:00.442Z,4.72
2023-03-20T09:24:29.242Z,8.05
2023-03-20T09:26:55.978Z,6.22
2023-03-20T09:29:22.656Z,8.65
2023-03-20T09:31:49.331Z,5.13
2023-03-20T09:34:16.152Z,7.82
2023-03-20T09:36:42.890Z,4.47
2023-03-20T09:39:09.604Z,3.60
2023-03-20T09:41:49.210Z,5.72
2023-03-20T09:44:46.049Z,8.80
2023-03-20T09:47:34.474Z,6.50
2023-03-20T09:50:08.023Z,6.70
2023-03-20T09:52:36.813Z,4.32
2023-03-20T09:55:13.257Z,5.20
2023-03-20T09:57:41.731Z,5.10
2023-03-20T10:00:18.076Z,9.43
2023-03-20T10:02:59.022Z,6.57
2023-03-20T10:05:32.564Z,4.40
2023-03-20T10:08:02.019Z,6.80
2023-03-20T10:11:02.830Z,5.18
2023-03-20T10:14:02.911Z,5.93
2023-03-20T10:16:39.643Z,4.88
2023-03-20T10:19:14.050Z,6.38
2023-03-20T10:21:44.900Z,5.78
2023-03-20T10:24:19.490Z,9.25
2023-03-20T10:26:47.331Z,6.28
2023-03-20T10:29:23.411Z,4.10
2023-03-20T10:32:17.165Z,6.70
2023-03-20T10:35:10.993Z,7.32
2023-03-20T10:37:49.970Z,5.30
2023-03-20T10:40:23.669Z,6.03
2023-03-20T10:42:51.252Z,6.65
2023-03-20T10:45:17.925Z,7.53
2023-03-20T10:47:44.980Z,5.35
2023-03-20T10:50:17.004Z,7.22
2023-03-20T10:52:44.178Z,7.85
2023-03-20T10:55:16.097Z,6.93
2023-03-20T10:57:47.512Z,6.72
2023-03-20T11:00:24.974Z,5.50
2023-03-20T11:02:52.054Z,5.63
2023-03-20T11:05:34.617Z,7.78
2023-03-20T11:08:07.476Z,8.05
2023-03-20T11:10:36.028Z,7.30
2023-03-20T11:13:26.587Z,10.40
2023-03-20T11:15:54.052Z,9.48
2023-03-20T11:18:20.816Z,6.70
2023-03-20T11:20:58.131Z,7.40
2023-03-20T11:23:35.289Z,6.90
2023-03-20T11:26:06.862Z,4.70
2023-03-20T11:28:34.468Z,5.90
2023-03-20T11:31:06.613Z,5.32
2023-03-20T11:33:46.337Z,14.15
2023-03-20T11:36:21.951Z,5.53
2023-03-20T11:38:49.115Z,5.38
2023-03-20T11:41:26.680Z,11.00
2023-03-20T11:43:53.557Z,7.95
2023-03-20T11:46:23.217Z,7.32
2023-03-20T11:49:05.965Z,4.90
2023-03-20T11:51:35.394Z,5.50
2023-03-20T11:54:06.460Z,5.75
2023-03-20T11:56:33.581Z,7.72
2023-03-20T11:59:13.978Z,6.68
2023-03-20T12:01:46.993Z,5.00
2023-03-20T12:04:42.953Z,5.38
2023-03-20T12:07:18.381Z,5.78
2023-03-20T12:09:54.017Z,4.80
2023-03-20T12:12:42.445Z,6.45
2023-03-20T12:15:33.618Z,7.10
2023-03-20T12:18:24.795Z,6.85
2023-03-20T12:21:08.599Z,7.07
2023-03-20T12:23:38.303Z,5.35
2023-03-20T12:26:07.501Z,6.47
2023-03-20T12:28:43.446Z,4.90
2023-03-20T12:31:21.292Z,6.25
2023-03-20T12:33:53.992Z,6.35
2023-03-20T12:36:29.767Z,8.15
2023-03-20T12:38:56.500Z,14.95
2023-03-20T12:41:26.718Z,9.10
2023-03-20T12:44:05.370Z,8.98
2023-03-20T12:46:53.883Z,6.00
2023-03-20T12:49:29.862Z,5.93
2023-03-20T12:51:59.221Z,7.47
2023-03-20T12:55:07.181Z,6.78
2023-03-20T12:57:47.162Z,7.25
2023-03-20T13:00:23.500Z,8.73
2023-03-20T13:02:57.002Z,9.77
2023-03-20T13:05:32.754Z,5.85
2023-03-20T13:08:00.377Z,5.20
2023-03-20T13:10:37.112Z,5.45
2023-03-20T13:13:39.303Z,8.10
2023-03-20T13:16:30.195Z,5.63
2023-03-20T13:19:17.718Z,6.18
2023-03-20T13:21:56.766Z,5.47
2023-03-20T13:24:38.131Z,3.83
2023-03-20T13:27:29.493Z,4.55
2023-03-20T13:30:08.649Z,4.97
2023-03-20T13:32:39.639Z,7.68
2023-03-20T13:35:35.295Z,4.50
2023-03-20T13:38:11.304Z,5.15
2023-03-20T13:40:43.953Z,6.13
2023-03-20T13:43:39.571Z,5.45
2023-03-20T13:46:25.507Z,6.45
2023-03-20T13:48:53.005Z,6.38
2023-03-20T13:51:27.308Z,5.97
2023-03-20T13:54:16.272Z,3.38
2023-03-20T13:56:54.597Z,6.22
2023-03-20T13:59:49.401Z,7.80
2023-03-20T14:02:28.201Z,6.40
2023-03-20T14:05:22.877Z,4.53
2023-03-20T14:07:50.578Z,8.70
2023-03-20T14:10:24.001Z,9.30
2023-03-20T14:12:50.743Z,11.70
2023-03-20T14:15:19.400Z,6.43
2023-03-20T14:17:47.234Z,4.40
2023-03-20T14:20:38.699Z,6.05
2023-03-20T14:23:07.329Z,5.13
2023-03-20T14:25:44.233Z,4.75
2023-03-20T14:28:14.015Z,6.30
2023-03-20T14:30:49.027Z,6.47
2023-03-20T14:33:21.075Z,8.52
2023-03-20T14:35:50.789Z,7.95
2023-03-20T14:38:39.656Z,5.40
2023-03-20T14:41:15.853Z,3.63
2023-03-20T14:43:58.501Z,5.10
2023-03-20T14:46:47.503Z,5.55
2023-03-20T14:49:22.834Z,4.97
2023-03-20T14:51:50.729Z,4.00
2023-03-20T14:54:28.812Z,3.83
2023-03-20T14:56:55.631Z,8.27
2023-03-20T14:59:25.152Z,4.43
2023-03-20T15:02:00.099Z,2.53
2023-03-20T15:04:34.958Z,3.95
2023-03-20T15:07:15.027Z,5.55
2023-03-20T15:09:46.194Z,7.50
2023-03-20T15:12:14.354Z,7.40
2023-03-20T15:14:52.294Z,8.98
2023-03-20T15:17:27.275Z,9.07
2023-03-20T15:20:07.828Z,5.93
2023-03-20T15:22:36.546Z,6.90
2023-03-20T15:25:04.212Z,10.48
2023-03-20T15:27:31.009Z,6.85
2023-03-20T15:29:57.907Z,7.50
2023-03-20T15:32:24.572Z,7.18
2023-03-20T15:34:51.295Z,7.15
2023-03-20T15:37:23.381Z,7.15
2023-03-20T15:39:52.041Z,6.22
2023-03-20T15:42:23.271Z,4.32
2023-03-20T15:44:52.143Z,9.00
2023-03-20T15:47:23.215Z,6.13
2023-03-20T15:49:56.934Z,6.05
2023-03-20T15:52:42.072Z,5.78
2023-03-20T15:55:16.758Z,8.32
2023-03-20T15:57:44.852Z,6.10
2023-03-20T16:00:26.470Z,10.95
2023-03-20T16:02:53.149Z,8.68
2023-03-20T16:05:19.993Z,7.93
2023-03-20T16:07:47.382Z,5.93
2023-03-20T16:10:18.728Z,6.10
2023-03-20T16:12:54.441Z,4.60
2023-03-20T16:15:21.776Z,6.45
2023-03-20T16:17:49.660Z,4.55
2023-03-20T16:20:16.935Z,4.43
2023-03-20T16:22:44.101Z,10.85
2023-03-20T16:25:15.450Z,5.43
2023-03-20T16:27:42.302Z,8.98
2023-03-20T16:30:20.116Z,3.90
2023-03-20T16:32:47.662Z,5.13
2023-03-20T16:35:17.650Z,4.32
2023-03-20T16:37:58.169Z,7.03
2023-03-20T16:40:28.606Z,4.82
2023-03-20T16:42:57.156Z,6.47
2023-03-20T16:45:28.878Z,7.75
2023-03-20T16:48:11.187Z,6.97
2023-03-20T16:50:41.922Z,4.78
2023-03-20T16:53:14.107Z,8.07
2023-03-20T16:55:48.354Z,6.47
2023-03-20T16:58:23.864Z,4.60
2023-03-20T17:01:09.340Z,8.05
2023-03-20T17:03:44.975Z,5.00
2023-03-20T17:06:23.198Z,3.83
2023-03-20T17:09:00.470Z,4.75
2023-03-20T17:11:32.920Z,2.25
2023-03-20T17:13:59.862Z,5.70
2023-03-20T17:16:26.735Z,4.47
2023-03-20T17:19:10.990Z,4.65
2023-03-20T17:21:37.902Z,4.40
2023-03-20T17:24:05.192Z,5.63
2023-03-20T17:26:31.854Z,4.45
2023-03-20T17:28:58.549Z,7.00
2023-03-20T17:31:25.290Z,6.10
2023-03-20T17:33:52.720Z,6.30
2023-03-20T17:36:28.234Z,10.32
2023-03-20T17:38:55.590Z,4.85
2023-03-20T17:41:22.863Z,4.95
2023-03-20T17:43:51.443Z,8.60
2023-03-20T17:46:29.380Z,7.63
2023-03-20T17:49:07.781Z,7.05
2023-03-20T17:51:36.682Z,6.47
2023-03-20T17:54:03.589Z,6.28
2023-03-20T17:56:32.719Z,8.82
2023-03-20T17:59:00.183Z,5.60
2023-03-20T18:01:31.761Z,7.55
2023-03-20T18:03:59.242Z,10.43
2023-03-20T18:06:29.917Z,5.60
2023-03-20T18:08:57.128Z,6.65
2023-03-20T18:11:24.131Z,13.98
2023-03-20T18:13:50.867Z,5.50
2023-03-20T18:16:22.553Z,9.15
2023-03-20T18:18:49.365Z,12.88
2023-03-20T18:21:16.779Z,5.75
2023-03-20T18:23:44.358Z,11.90
2023-03-20T18:26:26.415Z,10.15
2023-03-20T18:28:53.869Z,6.47
2023-03-20T18:31:20.929Z,12.73
2023-03-20T18:33:48.905Z,7.65
2023-03-20T18:36:17.222Z,10.48
2023-03-20T18:38:44.284Z,6.20
2023-03-20T18:41:11.681Z,12.30
2023-03-20T18:43:39.418Z,8.23
2023-03-20T18:46:11.704Z,5.93
2023-03-20T18:48:38.583Z,8.13
2023-03-20T18:51:06.794Z,14.77
2023-03-20T18:53:33.523Z,11.35
2023-03-20T18:56:01.073Z,8.82
2023-03-20T18:58:28.915Z,10.65
2023-03-20T19:00:56.779Z,7.82
2023-03-20T19:03:24.349Z,7.75
2023-03-20T19:05:52.488Z,14.07
2023-03-20T19:08:19.498Z,8.93
2023-03-20T19:10:46.718Z,10.60
2023-03-20T19:13:15.840Z,9.07
2023-03-20T19:15:43.019Z,17.52
2023-03-20T19:18:23.163Z,8.48
2023-03-20T19:20:55.489Z,10.88
2023-03-20T19:23:23.442Z,13.45
2023-03-20T19:25:51.958Z,7.43
2023-03-20T19:28:37.714Z,9.38
2023-03-20T19:31:07.379Z,11.77
2023-03-20T19:33:34.372Z,7.15
2023-03-20T19:36:11.817Z,9.23
2023-03-20T19:38:39.980Z,7.88
2023-03-20T19:41:08.822Z,8.25
2023-03-20T19:43:51.420Z,9.18
2023-03-20T19:46:36.262Z,5.93
2023-03-20T19:49:06.450Z,6.53
2023-03-20T19:51:33.630Z,7.03
2023-03-20T19:54:00.647Z,8.02
2023-03-20T19:56:27.395Z,7.55
2023-03-20T19:58:54.800Z,4.28
2023-03-20T20:01:24.364Z,6.82
2023-03-20T20:03:53.625Z,7.78
2023-03-20T20:06:22.352Z,7.15
2023-03-20T20:08:49.805Z,10.63
2023-03-20T20:11:19.736Z,9.50
2023-03-20T20:14:07.191Z,9.93
2023-03-20T20:16:34.589Z,10.15
2023-03-20T20:19:01.344Z,14.48
2023-03-20T20:22:13.370Z,8.90
2023-03-20T20:24:18.645Z,9.55
2023-03-20T20:26:54.483Z,11.98
2023-03-20T20:29:25.176Z,9.23
2023-03-20T20:31:52.079Z,12.27
2023-03-20T20:37:56.429Z,7.53
2023-03-20T20:39:53.335Z,13.40
2023-03-20T20:42:20.574Z,14.98
2023-03-20T20:44:47.329Z,13.18
2023-03-20T20:47:14.119Z,13.48
2023-03-20T20:49:40.961Z,14.93
2023-03-20T20:52:09.106Z,8.90
2023-03-20T20:54:35.831Z,10.27
2023-03-20T20:57:02.548Z,11.38
2023-03-20T20:59:29.376Z,9.88
2023-03-20T21:01:56.491Z,12.30
2023-03-20T21:04:23.323Z,11.82
2023-03-20T21:07:08.613Z,8.95
2023-03-20T21:09:36.708Z,12.75
2023-03-20T21:12:03.998Z,13.38
2023-03-20T21:14:30.822Z,11.90
2023-03-20T21:17:00.864Z,11.00
2023-03-20T21:19:33.473Z,8.35
2023-03-20T21:22:00.405Z,6.75
2023-03-20T21:24:33.584Z,9.57
2023-03-20T21:27:03.057Z,6.70
2023-03-20T21:29:29.804Z,10.02
2023-03-20T21:31:56.634Z,7.72
2023-03-20T21:34:23.434Z,6.20
2023-03-20T21:36:51.419Z,11.45
2023-03-20T21:39:18.451Z,5.88
2023-03-20T21:41:46.016Z,10.65
2023-03-20T21:44:17.473Z,7.75
2023-03-20T21:55:57.554Z,5.65
2023-03-20T22:01:39.734Z,5.60
2023-03-20T22:04:22.082Z,6.30
2023-03-20T22:15:23.327Z,8.23
2023-03-20T22:21:03.851Z,10.50
2023-03-20T22:23:45.574Z,6.07
2023-03-20T22:29:32.661Z,8.00
2023-03-20T22:32:35.022Z,7.30
2023-03-20T22:40:50.368Z,5.15
2023-03-20T22:43:02.467Z,8.32
2023-03-20T22:45:38.141Z,6.00
2023-03-20T22:48:11.596Z,5.97
2023-03-20T22:50:40.107Z,7.00
2023-03-20T22:53:06.970Z,5.57
2023-03-20T22:55:33.649Z,6.90
2023-03-20T22:58:07.397Z,4.03
2023-03-20T23:00:35.542Z,6.70
2023-03-20T23:03:17.238Z,4.40
2023-03-20T23:05:47.107Z,4.15
2023-03-20T23:08:14.837Z,4.80
2023-03-20T23:10:47.137Z,5.60
2023-03-20T23:13:14.905Z,4.28
2023-03-20T23:15:41.776Z,4.20
2023-03-20T23:18:09.728Z,5.85
2023-03-20T23:20:36.602Z,5.95
2023-03-20T23:23:03.473Z,4.80
2023-03-20T23:25:38.892Z,4.65
2023-03-20T23:28:08.051Z,5.30
2023-03-20T23:30:44.350Z,5.13
2023-03-20T23:33:13.168Z,6.07
2023-03-20T23:35:39.959Z,3.83
2023-03-20T23:38:06.697Z,4.03
2023-03-20T23:40:33.365Z,5.88
2023-03-20T23:43:00.200Z,7.03
2023-03-20T23:45:27.142Z,6.90
2023-03-20T23:47:53.891Z,4.28
2023-03-20T23:50:28.886Z,5.70
2023-03-20T23:53:09.488Z,3.70
2023-03-20T23:55:44.703Z,5.47
2023-03-20T23:58:11.724Z,6.32
